Accueil
METAR-TAF:

METAR-TAF

Aéroports :

Belgrade, Serbie

Aéroport Nikola-Tesla de Belgrade

latitude: 44-49N, longitude: 020-17E, altitude: 96 m

Observation

Le bulletin a été fait il y a 22 minutes, à 01:30 UTC
Vent 3 kt de est
Température 20°C
Humidité 68%
Pression 1015 hPa
Visibilité 10 km ou plus
pas de nuages en-dessous de 1500 mètres et pas de cumulonimbus.

METAR: LYBE 190130Z 10003KT CAVOK 20/14 Q1015 NOSIG

Heure: 03:52 (01:52 UTC)

Prévision

Le bulletin a été fait il y a 2 heures et 52 minutes, à 23:00 UTC
Prévision valable du 19 à 00 UTC au 19 à 24 UTC
Vent 6 kt de est/sud-est
Visibilité 10 km ou plus
pas de nuages en-dessous de 1500 mètres et pas de cumulonimbus.
Temporairement
du 19 à 09 UTC au 19 à 13 UTC
Vent 16 kt de sud-est

TAF: LYBE 182300Z 1900/1924 12006KT CAVOK TX36/1814Z TN20/1903Z TEMPO 1909/1913 14016KT

Observations et prévisions météorologiques de plus de 4000 aéroports (messages METAR et TAF).

Les stations disponibles sont représentées par des disques jaunes et rouges sur la carte.

Passer la souris dessus pour voir le nom de la station.

Cliquer dessus pour voir les observations et prévisions météorologiques.

Pour changer de carte: cliquez sur les boutons verts avec une croix noire pour zoomer, sur le bouton vert avec un tiret pour effectuer un zoom arrière, ou sur les flèches vertes pour les cartes adjacentes.


METAR-TAF: